sensor_id;sensor_type;location;lat;lon;timestamp;P1;durP1;ratioP1;P2;durP2;ratioP2
53925;SDS011;39836;52.754;6.866;2023-05-28T00:43:53;28.95;;;8.30;;
53925;SDS011;39836;52.754;6.866;2023-05-28T00:46:37;21.60;;;8.40;;
53925;SDS011;39836;52.754;6.866;2023-05-28T00:52:47;22.83;;;9.35;;
53925;SDS011;39836;52.754;6.866;2023-05-28T00:55:24;25.38;;;8.55;;
53925;SDS011;39836;52.754;6.866;2023-05-28T00:57:58;19.48;;;8.43;;
53925;SDS011;39836;52.754;6.866;2023-05-28T01:00:30;28.33;;;9.75;;
53925;SDS011;39836;52.754;6.866;2023-05-28T01:03:00;28.40;;;8.27;;
53925;SDS011;39836;52.754;6.866;2023-05-28T01:05:26;24.95;;;8.68;;
53925;SDS011;39836;52.754;6.866;2023-05-28T01:07:52;22.70;;;8.38;;
53925;SDS011;39836;52.754;6.866;2023-05-28T01:10:18;21.83;;;8.32;;
53925;SDS011;39836;52.754;6.866;2023-05-28T01:12:44;22.70;;;7.90;;
53925;SDS011;39836;52.754;6.866;2023-05-28T01:15:10;23.75;;;9.00;;
53925;SDS011;39836;52.754;6.866;2023-05-28T01:17:36;18.70;;;8.38;;
53925;SDS011;39836;52.754;6.866;2023-05-28T01:20:04;22.70;;;8.82;;
53925;SDS011;39836;52.754;6.866;2023-05-28T01:22:37;23.23;;;9.57;;
53925;SDS011;39836;52.754;6.866;2023-05-28T01:25:06;26.45;;;10.25;;
53925;SDS011;39836;52.754;6.866;2023-05-28T01:27:36;21.70;;;9.02;;
53925;SDS011;39836;52.754;6.866;2023-05-28T01:30:07;25.98;;;9.77;;
53925;SDS011;39836;52.754;6.866;2023-05-28T01:32:37;25.70;;;9.82;;
53925;SDS011;39836;52.754;6.866;2023-05-28T01:35:04;24.48;;;9.45;;
53925;SDS011;39836;52.754;6.866;2023-05-28T01:37:36;29.38;;;9.45;;
53925;SDS011;39836;52.754;6.866;2023-05-28T01:40:07;25.95;;;8.45;;
53925;SDS011;39836;52.754;6.866;2023-05-28T01:42:34;19.02;;;8.65;;
53925;SDS011;39836;52.754;6.866;2023-05-28T01:45:00;25.23;;;9.02;;
53925;SDS011;39836;52.754;6.866;2023-05-28T01:47:28;25.20;;;9.27;;
53925;SDS011;39836;52.754;6.866;2023-05-28T01:49:54;26.50;;;8.32;;
53925;SDS011;39836;52.754;6.866;2023-05-28T01:52:20;23.20;;;8.02;;
53925;SDS011;39836;52.754;6.866;2023-05-28T01:54:46;25.45;;;8.88;;
53925;SDS011;39836;52.754;6.866;2023-05-28T01:57:12;28.55;;;8.85;;
53925;SDS011;39836;52.754;6.866;2023-05-28T01:59:38;22.55;;;8.60;;
53925;SDS011;39836;52.754;6.866;2023-05-28T02:02:04;25.63;;;9.80;;
53925;SDS011;39836;52.754;6.866;2023-05-28T02:04:30;22.27;;;10.80;;
53925;SDS011;39836;52.754;6.866;2023-05-28T02:06:56;22.83;;;9.93;;
53925;SDS011;39836;52.754;6.866;2023-05-28T02:09:21;26.90;;;9.10;;
53925;SDS011;39836;52.754;6.866;2023-05-28T02:11:47;24.15;;;9.73;;
53925;SDS011;39836;52.754;6.866;2023-05-28T02:14:13;25.85;;;10.57;;
53925;SDS011;39836;52.754;6.866;2023-05-28T02:16:42;27.67;;;9.80;;
53925;SDS011;39836;52.754;6.866;2023-05-28T02:19:10;26.05;;;9.52;;
53925;SDS011;39836;52.754;6.866;2023-05-28T02:21:36;28.35;;;10.57;;
53925;SDS011;39836;52.754;6.866;2023-05-28T02:24:02;25.90;;;10.00;;
53925;SDS011;39836;52.754;6.866;2023-05-28T02:26:28;23.38;;;9.48;;
53925;SDS011;39836;52.754;6.866;2023-05-28T02:28:54;23.33;;;10.20;;
53925;SDS011;39836;52.754;6.866;2023-05-28T02:31:19;28.20;;;10.35;;
53925;SDS011;39836;52.754;6.866;2023-05-28T02:33:45;28.05;;;10.90;;
53925;SDS011;39836;52.754;6.866;2023-05-28T02:36:11;27.35;;;10.98;;
53925;SDS011;39836;52.754;6.866;2023-05-28T02:38:37;23.95;;;9.95;;
53925;SDS011;39836;52.754;6.866;2023-05-28T02:41:04;26.85;;;10.88;;
53925;SDS011;39836;52.754;6.866;2023-05-28T02:43:29;29.42;;;11.45;;
53925;SDS011;39836;52.754;6.866;2023-05-28T02:45:55;29.00;;;10.73;;
53925;SDS011;39836;52.754;6.866;2023-05-28T02:48:21;29.52;;;10.95;;
53925;SDS011;39836;52.754;6.866;2023-05-28T02:50:47;23.90;;;9.75;;
53925;SDS011;39836;52.754;6.866;2023-05-28T02:53:12;27.42;;;11.00;;
53925;SDS011;39836;52.754;6.866;2023-05-28T02:55:38;31.05;;;11.80;;
53925;SDS011;39836;52.754;6.866;2023-05-28T02:58:04;27.55;;;12.50;;
53925;SDS011;39836;52.754;6.866;2023-05-28T03:00:30;24.90;;;12.18;;
53925;SDS011;39836;52.754;6.866;2023-05-28T03:02:56;30.20;;;11.05;;
53925;SDS011;39836;52.754;6.866;2023-05-28T03:05:22;26.45;;;11.20;;
53925;SDS011;39836;52.754;6.866;2023-05-28T03:07:48;29.70;;;10.63;;
53925;SDS011;39836;52.754;6.866;2023-05-28T03:10:14;30.23;;;10.35;;
53925;SDS011;39836;52.754;6.866;2023-05-28T03:12:40;25.55;;;10.18;;
53925;SDS011;39836;52.754;6.866;2023-05-28T03:15:06;26.48;;;10.60;;
53925;SDS011;39836;52.754;6.866;2023-05-28T03:17:32;31.08;;;10.07;;
53925;SDS011;39836;52.754;6.866;2023-05-28T03:19:57;24.83;;;10.38;;
53925;SDS011;39836;52.754;6.866;2023-05-28T03:22:23;33.00;;;11.70;;
53925;SDS011;39836;52.754;6.866;2023-05-28T03:24:50;22.80;;;10.65;;
53925;SDS011;39836;52.754;6.866;2023-05-28T03:27:15;26.90;;;11.73;;
53925;SDS011;39836;52.754;6.866;2023-05-28T03:29:41;30.08;;;11.55;;
53925;SDS011;39836;52.754;6.866;2023-05-28T03:32:07;28.17;;;11.30;;
53925;SDS011;39836;52.754;6.866;2023-05-28T03:34:32;27.13;;;10.82;;
53925;SDS011;39836;52.754;6.866;2023-05-28T03:36:58;29.17;;;11.00;;
53925;SDS011;39836;52.754;6.866;2023-05-28T03:39:24;27.05;;;10.65;;
53925;SDS011;39836;52.754;6.866;2023-05-28T03:41:50;28.85;;;10.63;;
53925;SDS011;39836;52.754;6.866;2023-05-28T03:44:16;26.58;;;11.05;;
53925;SDS011;39836;52.754;6.866;2023-05-28T03:46:42;25.05;;;10.73;;
53925;SDS011;39836;52.754;6.866;2023-05-28T03:49:08;29.08;;;10.88;;
53925;SDS011;39836;52.754;6.866;2023-05-28T03:51:34;30.02;;;11.70;;
53925;SDS011;39836;52.754;6.866;2023-05-28T03:53:59;21.90;;;11.02;;
53925;SDS011;39836;52.754;6.866;2023-05-28T03:56:25;23.83;;;11.35;;
53925;SDS011;39836;52.754;6.866;2023-05-28T03:58:52;24.45;;;11.55;;
53925;SDS011;39836;52.754;6.866;2023-05-28T04:01:17;27.98;;;11.43;;
53925;SDS011;39836;52.754;6.866;2023-05-28T04:03:43;26.45;;;9.88;;
53925;SDS011;39836;52.754;6.866;2023-05-28T04:06:09;25.67;;;10.75;;
53925;SDS011;39836;52.754;6.866;2023-05-28T04:08:35;22.92;;;9.85;;
53925;SDS011;39836;52.754;6.866;2023-05-28T04:11:01;25.52;;;11.13;;
53925;SDS011;39836;52.754;6.866;2023-05-28T04:13:27;29.55;;;11.02;;
53925;SDS011;39836;52.754;6.866;2023-05-28T04:15:52;26.67;;;10.65;;
53925;SDS011;39836;52.754;6.866;2023-05-28T04:18:18;27.40;;;9.65;;
53925;SDS011;39836;52.754;6.866;2023-05-28T04:20:44;29.17;;;10.13;;
53925;SDS011;39836;52.754;6.866;2023-05-28T04:23:09;25.00;;;9.80;;
53925;SDS011;39836;52.754;6.866;2023-05-28T04:25:35;26.35;;;10.57;;
53925;SDS011;39836;52.754;6.866;2023-05-28T04:28:02;31.45;;;10.70;;
53925;SDS011;39836;52.754;6.866;2023-05-28T04:30:28;23.80;;;10.02;;
53925;SDS011;39836;52.754;6.866;2023-05-28T04:32:53;26.90;;;9.35;;
53925;SDS011;39836;52.754;6.866;2023-05-28T04:35:20;29.35;;;10.85;;
53925;SDS011;39836;52.754;6.866;2023-05-28T04:37:46;27.50;;;10.38;;
53925;SDS011;39836;52.754;6.866;2023-05-28T04:40:12;25.77;;;11.15;;
53925;SDS011;39836;52.754;6.866;2023-05-28T04:42:38;26.33;;;9.70;;
53925;SDS011;39836;52.754;6.866;2023-05-28T04:45:06;27.67;;;10.93;;
53925;SDS011;39836;52.754;6.866;2023-05-28T04:47:38;26.27;;;9.88;;
53925;SDS011;39836;52.754;6.866;2023-05-28T04:50:04;26.38;;;9.68;;
53925;SDS011;39836;52.754;6.866;2023-05-28T04:52:31;30.45;;;10.40;;
53925;SDS011;39836;52.754;6.866;2023-05-28T04:54:58;25.95;;;11.05;;
53925;SDS011;39836;52.754;6.866;2023-05-28T04:57:23;19.88;;;10.07;;
53925;SDS011;39836;52.754;6.866;2023-05-28T04:59:49;24.90;;;10.43;;
53925;SDS011;39836;52.754;6.866;2023-05-28T05:02:15;34.40;;;10.60;;
53925;SDS011;39836;52.754;6.866;2023-05-28T05:04:46;26.73;;;10.77;;
53925;SDS011;39836;52.754;6.866;2023-05-28T05:07:12;27.05;;;11.27;;
53925;SDS011;39836;52.754;6.866;2023-05-28T05:09:38;26.63;;;10.85;;
53925;SDS011;39836;52.754;6.866;2023-05-28T05:12:04;23.98;;;10.98;;
53925;SDS011;39836;52.754;6.866;2023-05-28T05:14:31;32.25;;;11.18;;
53925;SDS011;39836;52.754;6.866;2023-05-28T05:16:56;28.08;;;10.65;;
53925;SDS011;39836;52.754;6.866;2023-05-28T05:19:22;28.13;;;10.40;;
53925;SDS011;39836;52.754;6.866;2023-05-28T05:21:48;24.33;;;10.52;;
53925;SDS011;39836;52.754;6.866;2023-05-28T05:24:14;31.63;;;10.15;;
53925;SDS011;39836;52.754;6.866;2023-05-28T05:26:39;38.55;;;11.13;;
53925;SDS011;39836;52.754;6.866;2023-05-28T05:29:05;20.27;;;10.13;;
53925;SDS011;39836;52.754;6.866;2023-05-28T05:31:31;26.05;;;10.60;;
53925;SDS011;39836;52.754;6.866;2023-05-28T05:33:57;24.75;;;11.35;;
53925;SDS011;39836;52.754;6.866;2023-05-28T05:36:22;29.15;;;11.27;;
53925;SDS011;39836;52.754;6.866;2023-05-28T05:38:48;22.90;;;10.30;;
53925;SDS011;39836;52.754;6.866;2023-05-28T05:41:13;25.70;;;11.85;;
53925;SDS011;39836;52.754;6.866;2023-05-28T05:43:39;27.42;;;10.57;;
53925;SDS011;39836;52.754;6.866;2023-05-28T05:46:05;25.70;;;10.00;;
53925;SDS011;39836;52.754;6.866;2023-05-28T05:48:30;24.73;;;10.07;;
53925;SDS011;39836;52.754;6.866;2023-05-28T05:50:56;28.20;;;11.18;;
53925;SDS011;39836;52.754;6.866;2023-05-28T05:53:23;22.30;;;10.05;;
53925;SDS011;39836;52.754;6.866;2023-05-28T05:55:49;25.35;;;9.52;;
53925;SDS011;39836;52.754;6.866;2023-05-28T05:58:15;18.23;;;8.93;;
53925;SDS011;39836;52.754;6.866;2023-05-28T06:00:41;27.70;;;9.93;;
53925;SDS011;39836;52.754;6.866;2023-05-28T06:03:07;21.42;;;9.90;;
53925;SDS011;39836;52.754;6.866;2023-05-28T06:05:33;18.73;;;9.00;;
53925;SDS011;39836;52.754;6.866;2023-05-28T06:08:00;20.38;;;8.80;;
53925;SDS011;39836;52.754;6.866;2023-05-28T06:10:28;23.00;;;9.15;;
53925;SDS011;39836;52.754;6.866;2023-05-28T06:12:54;21.08;;;8.40;;
53925;SDS011;39836;52.754;6.866;2023-05-28T06:15:21;23.58;;;8.82;;
53925;SDS011;39836;52.754;6.866;2023-05-28T06:17:47;22.67;;;8.85;;
53925;SDS011;39836;52.754;6.866;2023-05-28T06:20:13;25.40;;;9.27;;
53925;SDS011;39836;52.754;6.866;2023-05-28T06:22:40;19.27;;;8.13;;
53925;SDS011;39836;52.754;6.866;2023-05-28T06:25:06;20.63;;;9.00;;
53925;SDS011;39836;52.754;6.866;2023-05-28T06:27:33;21.63;;;8.90;;
53925;SDS011;39836;52.754;6.866;2023-05-28T06:30:01;17.38;;;8.32;;
53925;SDS011;39836;52.754;6.866;2023-05-28T06:32:27;18.20;;;8.07;;
53925;SDS011;39836;52.754;6.866;2023-05-28T06:34:52;16.23;;;7.90;;
53925;SDS011;39836;52.754;6.866;2023-05-28T06:37:18;16.85;;;7.30;;
53925;SDS011;39836;52.754;6.866;2023-05-28T06:39:44;15.88;;;7.15;;
53925;SDS011;39836;52.754;6.866;2023-05-28T06:42:09;21.88;;;7.93;;
53925;SDS011;39836;52.754;6.866;2023-05-28T06:44:35;19.13;;;8.35;;
53925;SDS011;39836;52.754;6.866;2023-05-28T06:47:01;16.45;;;7.07;;
53925;SDS011;39836;52.754;6.866;2023-05-28T06:49:26;25.38;;;8.35;;
53925;SDS011;39836;52.754;6.866;2023-05-28T06:51:52;18.15;;;7.22;;
53925;SDS011;39836;52.754;6.866;2023-05-28T06:54:18;19.77;;;7.70;;
53925;SDS011;39836;52.754;6.866;2023-05-28T06:56:43;19.70;;;7.15;;
53925;SDS011;39836;52.754;6.866;2023-05-28T06:59:09;17.60;;;6.43;;
53925;SDS011;39836;52.754;6.866;2023-05-28T07:01:35;18.95;;;7.03;;
53925;SDS011;39836;52.754;6.866;2023-05-28T07:04:01;17.60;;;6.63;;
53925;SDS011;39836;52.754;6.866;2023-05-28T07:06:26;15.45;;;6.40;;
53925;SDS011;39836;52.754;6.866;2023-05-28T07:08:52;18.00;;;6.47;;
53925;SDS011;39836;52.754;6.866;2023-05-28T07:11:18;21.98;;;6.93;;
53925;SDS011;39836;52.754;6.866;2023-05-28T07:13:44;21.83;;;7.93;;
53925;SDS011;39836;52.754;6.866;2023-05-28T07:16:10;18.40;;;7.38;;
53925;SDS011;39836;52.754;6.866;2023-05-28T07:18:35;20.40;;;8.07;;
53925;SDS011;39836;52.754;6.866;2023-05-28T07:21:01;20.02;;;6.75;;
53925;SDS011;39836;52.754;6.866;2023-05-28T07:23:28;18.15;;;7.43;;
53925;SDS011;39836;52.754;6.866;2023-05-28T07:25:53;17.23;;;6.78;;
53925;SDS011;39836;52.754;6.866;2023-05-28T07:28:19;21.90;;;6.93;;
53925;SDS011;39836;52.754;6.866;2023-05-28T07:30:45;17.23;;;6.63;;
53925;SDS011;39836;52.754;6.866;2023-05-28T07:33:16;19.77;;;7.38;;
53925;SDS011;39836;52.754;6.866;2023-05-28T07:51:14;18.48;;;6.18;;
53925;SDS011;39836;52.754;6.866;2023-05-28T10:01:31;19.10;;;7.22;;
53925;SDS011;39836;52.754;6.866;2023-05-28T10:04:12;16.85;;;6.32;;
53925;SDS011;39836;52.754;6.866;2023-05-28T10:06:43;14.30;;;6.22;;
53925;SDS011;39836;52.754;6.866;2023-05-28T10:09:10;15.63;;;6.72;;
53925;SDS011;39836;52.754;6.866;2023-05-28T10:11:43;20.77;;;6.55;;
53925;SDS011;39836;52.754;6.866;2023-05-28T10:14:15;20.45;;;7.30;;
53925;SDS011;39836;52.754;6.866;2023-05-28T10:16:42;14.43;;;6.40;;
53925;SDS011;39836;52.754;6.866;2023-05-28T10:19:07;15.15;;;6.53;;
53925;SDS011;39836;52.754;6.866;2023-05-28T10:21:34;15.60;;;6.32;;
53925;SDS011;39836;52.754;6.866;2023-05-28T10:24:01;17.35;;;7.15;;
53925;SDS011;39836;52.754;6.866;2023-05-28T10:26:28;15.50;;;6.55;;
53925;SDS011;39836;52.754;6.866;2023-05-28T10:28:55;20.52;;;7.28;;
53925;SDS011;39836;52.754;6.866;2023-05-28T10:31:21;17.33;;;6.90;;
53925;SDS011;39836;52.754;6.866;2023-05-28T10:33:47;16.15;;;6.50;;
53925;SDS011;39836;52.754;6.866;2023-05-28T10:36:14;18.05;;;6.57;;
53925;SDS011;39836;52.754;6.866;2023-05-28T10:38:41;15.73;;;6.25;;
53925;SDS011;39836;52.754;6.866;2023-05-28T10:41:09;15.65;;;6.22;;
53925;SDS011;39836;52.754;6.866;2023-05-28T10:46:06;19.17;;;6.82;;
53925;SDS011;39836;52.754;6.866;2023-05-28T10:48:37;17.20;;;6.93;;
53925;SDS011;39836;52.754;6.866;2023-05-28T10:51:06;15.50;;;6.25;;
53925;SDS011;39836;52.754;6.866;2023-05-28T10:53:33;13.00;;;6.05;;
53925;SDS011;39836;52.754;6.866;2023-05-28T10:56:00;16.35;;;5.97;;
53925;SDS011;39836;52.754;6.866;2023-05-28T10:58:27;20.83;;;6.13;;
53925;SDS011;39836;52.754;6.866;2023-05-28T11:03:40;14.35;;;5.47;;
53925;SDS011;39836;52.754;6.866;2023-05-28T11:06:10;16.40;;;5.97;;
53925;SDS011;39836;52.754;6.866;2023-05-28T11:08:40;15.10;;;6.13;;
53925;SDS011;39836;52.754;6.866;2023-05-28T11:11:12;15.70;;;6.07;;
53925;SDS011;39836;52.754;6.866;2023-05-28T11:13:46;13.70;;;5.63;;
53925;SDS011;39836;52.754;6.866;2023-05-28T11:16:17;14.27;;;6.32;;
53925;SDS011;39836;52.754;6.866;2023-05-28T11:18:59;14.05;;;6.15;;
53925;SDS011;39836;52.754;6.866;2023-05-28T11:21:28;16.55;;;5.70;;
53925;SDS011;39836;52.754;6.866;2023-05-28T11:24:02;12.75;;;5.95;;
53925;SDS011;39836;52.754;6.866;2023-05-28T11:26:29;12.48;;;5.22;;
53925;SDS011;39836;52.754;6.866;2023-05-28T11:28:56;15.55;;;5.85;;
53925;SDS011;39836;52.754;6.866;2023-05-28T11:31:22;13.93;;;6.28;;
53925;SDS011;39836;52.754;6.866;2023-05-28T11:33:48;15.48;;;6.05;;
53925;SDS011;39836;52.754;6.866;2023-05-28T11:36:14;14.63;;;5.50;;
53925;SDS011;39836;52.754;6.866;2023-05-28T11:38:40;12.27;;;4.70;;
53925;SDS011;39836;52.754;6.866;2023-05-28T11:41:05;16.23;;;5.45;;
53925;SDS011;39836;52.754;6.866;2023-05-28T11:43:31;15.13;;;6.20;;
53925;SDS011;39836;52.754;6.866;2023-05-28T11:45:57;11.20;;;4.95;;
53925;SDS011;39836;52.754;6.866;2023-05-28T11:48:25;16.25;;;5.55;;
53925;SDS011;39836;52.754;6.866;2023-05-28T11:51:01;11.43;;;5.03;;
53925;SDS011;39836;52.754;6.866;2023-05-28T11:53:40;12.68;;;5.35;;
53925;SDS011;39836;52.754;6.866;2023-05-28T11:56:10;15.07;;;5.05;;
53925;SDS011;39836;52.754;6.866;2023-05-28T11:58:37;11.48;;;5.30;;
53925;SDS011;39836;52.754;6.866;2023-05-28T12:01:06;16.50;;;5.97;;
53925;SDS011;39836;52.754;6.866;2023-05-28T12:03:33;11.23;;;5.30;;
53925;SDS011;39836;52.754;6.866;2023-05-28T12:05:59;12.40;;;4.97;;
53925;SDS011;39836;52.754;6.866;2023-05-28T12:08:26;12.52;;;5.28;;
53925;SDS011;39836;52.754;6.866;2023-05-28T12:10:52;12.30;;;5.43;;
53925;SDS011;39836;52.754;6.866;2023-05-28T12:13:23;12.35;;;4.85;;
53925;SDS011;39836;52.754;6.866;2023-05-28T12:16:10;13.55;;;5.35;;
53925;SDS011;39836;52.754;6.866;2023-05-28T12:18:43;13.57;;;4.70;;
53925;SDS011;39836;52.754;6.866;2023-05-28T12:21:10;12.95;;;4.68;;
53925;SDS011;39836;52.754;6.866;2023-05-28T12:23:45;11.65;;;4.40;;
53925;SDS011;39836;52.754;6.866;2023-05-28T12:26:11;10.38;;;4.78;;
53925;SDS011;39836;52.754;6.866;2023-05-28T12:28:38;9.68;;;4.22;;
53925;SDS011;39836;52.754;6.866;2023-05-28T12:31:06;9.93;;;4.20;;
53925;SDS011;39836;52.754;6.866;2023-05-28T12:33:33;10.68;;;4.15;;
53925;SDS011;39836;52.754;6.866;2023-05-28T12:35:59;9.75;;;4.15;;
53925;SDS011;39836;52.754;6.866;2023-05-28T12:38:25;10.75;;;4.47;;
53925;SDS011;39836;52.754;6.866;2023-05-28T12:40:52;10.52;;;4.72;;
53925;SDS011;39836;52.754;6.866;2023-05-28T12:43:18;7.72;;;3.85;;
53925;SDS011;39836;52.754;6.866;2023-05-28T12:45:43;8.55;;;4.03;;
53925;SDS011;39836;52.754;6.866;2023-05-28T12:48:09;13.02;;;4.18;;
53925;SDS011;39836;52.754;6.866;2023-05-28T12:50:35;9.23;;;4.47;;
53925;SDS011;39836;52.754;6.866;2023-05-28T12:53:01;9.05;;;4.80;;
53925;SDS011;39836;52.754;6.866;2023-05-28T12:55:29;9.40;;;4.18;;
53925;SDS011;39836;52.754;6.866;2023-05-28T12:57:56;7.57;;;3.97;;
53925;SDS011;39836;52.754;6.866;2023-05-28T13:00:22;9.20;;;4.60;;
53925;SDS011;39836;52.754;6.866;2023-05-28T13:02:49;11.73;;;4.38;;
53925;SDS011;39836;52.754;6.866;2023-05-28T13:05:15;13.02;;;4.75;;
53925;SDS011;39836;52.754;6.866;2023-05-28T13:07:41;6.28;;;4.13;;
53925;SDS011;39836;52.754;6.866;2023-05-28T13:10:08;7.78;;;4.80;;
53925;SDS011;39836;52.754;6.866;2023-05-28T13:12:35;7.93;;;4.93;;
53925;SDS011;39836;52.754;6.866;2023-05-28T13:15:05;8.52;;;4.72;;
53925;SDS011;39836;52.754;6.866;2023-05-28T13:17:32;8.68;;;5.10;;
53925;SDS011;39836;52.754;6.866;2023-05-28T13:19:58;8.30;;;4.38;;
53925;SDS011;39836;52.754;6.866;2023-05-28T13:22:24;8.70;;;4.45;;
53925;SDS011;39836;52.754;6.866;2023-05-28T13:24:50;7.15;;;3.20;;
53925;SDS011;39836;52.754;6.866;2023-05-28T13:27:15;12.13;;;4.55;;
53925;SDS011;39836;52.754;6.866;2023-05-28T13:29:41;7.30;;;4.30;;
53925;SDS011;39836;52.754;6.866;2023-05-28T13:32:07;7.85;;;4.43;;
53925;SDS011;39836;52.754;6.866;2023-05-28T13:34:33;9.70;;;4.72;;
53925;SDS011;39836;52.754;6.866;2023-05-28T13:36:59;8.38;;;4.95;;
53925;SDS011;39836;52.754;6.866;2023-05-28T13:39:25;10.18;;;4.68;;
53925;SDS011;39836;52.754;6.866;2023-05-28T13:41:50;8.63;;;4.53;;
53925;SDS011;39836;52.754;6.866;2023-05-28T13:44:17;12.20;;;4.57;;
53925;SDS011;39836;52.754;6.866;2023-05-28T13:46:43;7.93;;;4.72;;
53925;SDS011;39836;52.754;6.866;2023-05-28T13:49:09;11.57;;;4.18;;
53925;SDS011;39836;52.754;6.866;2023-05-28T13:51:35;7.28;;;4.25;;
53925;SDS011;39836;52.754;6.866;2023-05-28T13:54:04;7.25;;;3.70;;
53925;SDS011;39836;52.754;6.866;2023-05-28T13:56:30;7.30;;;3.88;;
53925;SDS011;39836;52.754;6.866;2023-05-28T13:58:56;8.38;;;3.72;;
53925;SDS011;39836;52.754;6.866;2023-05-28T14:01:21;6.47;;;3.30;;
53925;SDS011;39836;52.754;6.866;2023-05-28T14:03:47;6.72;;;3.60;;
53925;SDS011;39836;52.754;6.866;2023-05-28T14:06:13;10.27;;;3.78;;
53925;SDS011;39836;52.754;6.866;2023-05-28T14:08:38;8.75;;;3.75;;
53925;SDS011;39836;52.754;6.866;2023-05-28T14:11:04;7.85;;;3.65;;
53925;SDS011;39836;52.754;6.866;2023-05-28T14:13:30;7.93;;;3.50;;
53925;SDS011;39836;52.754;6.866;2023-05-28T14:15:57;6.07;;;2.95;;
53925;SDS011;39836;52.754;6.866;2023-05-28T14:18:23;8.43;;;3.40;;
53925;SDS011;39836;52.754;6.866;2023-05-28T14:20:49;6.55;;;2.83;;
53925;SDS011;39836;52.754;6.866;2023-05-28T14:23:15;6.10;;;2.90;;
53925;SDS011;39836;52.754;6.866;2023-05-28T14:25:40;8.57;;;4.28;;
53925;SDS011;39836;52.754;6.866;2023-05-28T14:28:06;9.00;;;3.08;;
53925;SDS011;39836;52.754;6.866;2023-05-28T14:30:32;5.63;;;2.70;;
53925;SDS011;39836;52.754;6.866;2023-05-28T14:32:57;10.63;;;3.28;;
53925;SDS011;39836;52.754;6.866;2023-05-28T14:35:23;10.82;;;4.40;;
53925;SDS011;39836;52.754;6.866;2023-05-28T14:37:49;11.50;;;3.75;;
53925;SDS011;39836;52.754;6.866;2023-05-28T14:40:19;9.18;;;4.18;;
53925;SDS011;39836;52.754;6.866;2023-05-28T14:42:45;8.80;;;3.30;;
53925;SDS011;39836;52.754;6.866;2023-05-28T14:45:12;19.85;;;9.63;;
53925;SDS011;39836;52.754;6.866;2023-05-28T14:47:38;15.40;;;4.45;;
53925;SDS011;39836;52.754;6.866;2023-05-28T14:50:04;12.52;;;7.25;;
53925;SDS011;39836;52.754;6.866;2023-05-28T14:52:31;9.98;;;4.15;;
53925;SDS011;39836;52.754;6.866;2023-05-28T14:54:57;18.63;;;6.65;;
53925;SDS011;39836;52.754;6.866;2023-05-28T14:57:24;12.95;;;4.25;;
53925;SDS011;39836;52.754;6.866;2023-05-28T14:59:52;13.25;;;4.65;;
53925;SDS011;39836;52.754;6.866;2023-05-28T15:02:19;11.80;;;5.38;;
53925;SDS011;39836;52.754;6.866;2023-05-28T15:04:45;14.35;;;6.38;;
53925;SDS011;39836;52.754;6.866;2023-05-28T15:07:11;11.15;;;4.80;;
53925;SDS011;39836;52.754;6.866;2023-05-28T15:09:38;10.60;;;6.07;;
53925;SDS011;39836;52.754;6.866;2023-05-28T15:12:04;8.73;;;3.63;;
53925;SDS011;39836;52.754;6.866;2023-05-28T15:14:34;18.27;;;8.07;;
53925;SDS011;39836;52.754;6.866;2023-05-28T15:17:00;11.70;;;4.18;;
53925;SDS011;39836;52.754;6.866;2023-05-28T15:19:26;13.25;;;5.40;;
53925;SDS011;39836;52.754;6.866;2023-05-28T15:21:52;11.25;;;4.22;;
53925;SDS011;39836;52.754;6.866;2023-05-28T15:24:18;12.73;;;4.45;;
53925;SDS011;39836;52.754;6.866;2023-05-28T15:26:44;13.10;;;4.10;;
53925;SDS011;39836;52.754;6.866;2023-05-28T15:29:14;15.13;;;5.30;;
53925;SDS011;39836;52.754;6.866;2023-05-28T15:31:41;9.35;;;4.07;;
53925;SDS011;39836;52.754;6.866;2023-05-28T15:34:10;12.05;;;3.47;;
53925;SDS011;39836;52.754;6.866;2023-05-28T15:36:37;13.57;;;3.67;;
53925;SDS011;39836;52.754;6.866;2023-05-28T15:39:03;7.65;;;2.83;;
53925;SDS011;39836;52.754;6.866;2023-05-28T15:41:30;9.27;;;2.92;;
53925;SDS011;39836;52.754;6.866;2023-05-28T15:43:57;16.50;;;7.45;;
53925;SDS011;39836;52.754;6.866;2023-05-28T15:46:23;7.55;;;3.20;;
53925;SDS011;39836;52.754;6.866;2023-05-28T15:48:49;11.60;;;4.90;;
53925;SDS011;39836;52.754;6.866;2023-05-28T15:51:14;7.72;;;3.38;;
53925;SDS011;39836;52.754;6.866;2023-05-28T15:53:40;9.25;;;3.58;;
53925;SDS011;39836;52.754;6.866;2023-05-28T15:56:06;8.70;;;3.22;;
53925;SDS011;39836;52.754;6.866;2023-05-28T15:58:32;10.95;;;3.15;;
53925;SDS011;39836;52.754;6.866;2023-05-28T16:00:58;10.48;;;3.63;;
53925;SDS011;39836;52.754;6.866;2023-05-28T16:03:25;10.27;;;2.90;;
53925;SDS011;39836;52.754;6.866;2023-05-28T16:05:51;11.68;;;3.78;;
53925;SDS011;39836;52.754;6.866;2023-05-28T16:08:17;11.00;;;3.35;;
53925;SDS011;39836;52.754;6.866;2023-05-28T16:10:43;10.40;;;3.28;;
53925;SDS011;39836;52.754;6.866;2023-05-28T16:13:09;12.55;;;3.60;;
53925;SDS011;39836;52.754;6.866;2023-05-28T16:15:38;15.60;;;4.03;;
53925;SDS011;39836;52.754;6.866;2023-05-28T16:18:05;13.80;;;4.10;;
53925;SDS011;39836;52.754;6.866;2023-05-28T16:20:32;15.75;;;4.85;;
53925;SDS011;39836;52.754;6.866;2023-05-28T16:22:59;11.07;;;4.75;;
53925;SDS011;39836;52.754;6.866;2023-05-28T16:25:26;10.38;;;3.35;;
53925;SDS011;39836;52.754;6.866;2023-05-28T16:27:53;11.68;;;4.20;;
53925;SDS011;39836;52.754;6.866;2023-05-28T16:30:22;13.05;;;3.80;;
53925;SDS011;39836;52.754;6.866;2023-05-28T16:32:48;11.35;;;3.70;;
53925;SDS011;39836;52.754;6.866;2023-05-28T16:35:15;13.60;;;4.10;;
53925;SDS011;39836;52.754;6.866;2023-05-28T16:37:42;9.85;;;3.40;;
53925;SDS011;39836;52.754;6.866;2023-05-28T16:40:09;15.98;;;3.85;;
53925;SDS011;39836;52.754;6.866;2023-05-28T16:42:36;11.13;;;3.60;;
53925;SDS011;39836;52.754;6.866;2023-05-28T16:45:05;17.85;;;3.80;;
53925;SDS011;39836;52.754;6.866;2023-05-28T16:47:31;12.93;;;3.70;;
53925;SDS011;39836;52.754;6.866;2023-05-28T16:50:04;10.80;;;3.75;;
53925;SDS011;39836;52.754;6.866;2023-05-28T16:52:31;8.38;;;3.05;;
53925;SDS011;39836;52.754;6.866;2023-05-28T16:54:59;8.68;;;3.00;;
53925;SDS011;39836;52.754;6.866;2023-05-28T16:57:28;7.95;;;3.20;;
53925;SDS011;39836;52.754;6.866;2023-05-28T16:59:54;8.27;;;3.05;;
53925;SDS011;39836;52.754;6.866;2023-05-28T17:02:20;7.30;;;2.13;;
53925;SDS011;39836;52.754;6.866;2023-05-28T17:04:46;13.32;;;3.25;;
53925;SDS011;39836;52.754;6.866;2023-05-28T17:07:13;10.32;;;3.58;;
53925;SDS011;39836;52.754;6.866;2023-05-28T17:09:39;13.80;;;3.53;;
53925;SDS011;39836;52.754;6.866;2023-05-28T17:12:05;10.25;;;3.40;;
53925;SDS011;39836;52.754;6.866;2023-05-28T17:14:32;7.07;;;3.45;;
53925;SDS011;39836;52.754;6.866;2023-05-28T17:16:58;10.10;;;3.53;;
53925;SDS011;39836;52.754;6.866;2023-05-28T17:19:25;8.45;;;2.67;;
53925;SDS011;39836;52.754;6.866;2023-05-28T17:21:52;9.80;;;3.50;;
53925;SDS011;39836;52.754;6.866;2023-05-28T17:24:18;13.60;;;3.78;;
53925;SDS011;39836;52.754;6.866;2023-05-28T17:26:44;10.10;;;3.67;;
53925;SDS011;39836;52.754;6.866;2023-05-28T17:29:10;8.27;;;3.45;;
53925;SDS011;39836;52.754;6.866;2023-05-28T17:31:36;11.32;;;4.10;;
53925;SDS011;39836;52.754;6.866;2023-05-28T17:34:01;7.78;;;3.70;;
53925;SDS011;39836;52.754;6.866;2023-05-28T17:36:27;10.00;;;3.72;;
53925;SDS011;39836;52.754;6.866;2023-05-28T17:38:53;15.93;;;4.20;;
53925;SDS011;39836;52.754;6.866;2023-05-28T17:41:19;12.43;;;4.00;;
53925;SDS011;39836;52.754;6.866;2023-05-28T17:43:44;10.65;;;4.20;;
53925;SDS011;39836;52.754;6.866;2023-05-28T17:46:10;11.27;;;3.63;;